createdAt,value
2022-10-04T00:01:30.592Z,15.45
2022-10-04T00:04:05.969Z,15.92
2022-10-04T00:06:33.081Z,15.65
2022-10-04T00:09:14.607Z,16.28
2022-10-04T00:11:45.275Z,15.80
2022-10-04T00:14:17.229Z,15.47
2022-10-04T00:16:44.319Z,15.25
2022-10-04T00:19:14.180Z,14.70
2022-10-04T00:21:53.569Z,15.00
2022-10-04T00:24:21.143Z,14.78
2022-10-04T00:26:49.583Z,15.24
2022-10-04T00:29:35.443Z,14.87
2022-10-04T00:32:12.174Z,14.95
2022-10-04T00:34:47.350Z,14.86
2022-10-04T00:37:16.104Z,15.44
2022-10-04T00:39:44.097Z,15.06
2022-10-04T00:42:29.319Z,15.11
2022-10-04T00:45:01.143Z,16.19
2022-10-04T00:47:31.851Z,15.14
2022-10-04T00:50:02.680Z,14.75
2022-10-04T00:52:30.879Z,15.01
2022-10-04T00:54:58.541Z,15.65
2022-10-04T00:57:32.895Z,15.73
2022-10-04T01:00:04.295Z,16.43
2022-10-04T01:02:33.159Z,16.11
2022-10-04T01:05:00.438Z,16.07
2022-10-04T01:07:28.876Z,16.07
2022-10-04T01:09:57.692Z,15.55
2022-10-04T01:12:24.781Z,14.90
2022-10-04T01:14:54.890Z,16.27
2022-10-04T01:17:22.252Z,16.81
2022-10-04T01:19:50.147Z,15.51
2022-10-04T01:22:34.143Z,15.63
2022-10-04T01:25:01.743Z,15.15
2022-10-04T01:27:31.819Z,15.35
2022-10-04T01:29:59.098Z,14.44
2022-10-04T01:32:26.465Z,14.86
2022-10-04T01:34:53.577Z,14.83
2022-10-04T01:37:20.719Z,14.26
2022-10-04T01:39:48.161Z,14.95
2022-10-04T01:42:15.241Z,14.64
2022-10-04T01:44:49.829Z,15.37
2022-10-04T01:47:23.266Z,15.58
2022-10-04T01:49:51.531Z,15.03
2022-10-04T01:52:18.984Z,16.02
2022-10-04T01:54:47.751Z,15.28
2022-10-04T01:57:14.915Z,15.86
2022-10-04T01:59:52.635Z,15.71
2022-10-04T02:02:20.033Z,16.49
2022-10-04T02:04:49.943Z,16.70
2022-10-04T02:07:17.072Z,16.66
2022-10-04T02:09:44.843Z,16.94
2022-10-04T02:12:16.444Z,17.06
2022-10-04T02:14:44.535Z,16.94
2022-10-04T02:17:11.909Z,16.87
2022-10-04T02:19:39.836Z,17.27
2022-10-04T02:22:07.770Z,17.29
2022-10-04T02:24:36.839Z,17.13
2022-10-04T02:27:03.953Z,17.37
2022-10-04T02:29:31.075Z,17.36
2022-10-04T02:32:17.327Z,17.10
2022-10-04T02:34:45.385Z,17.62
2022-10-04T02:37:12.819Z,16.80
2022-10-04T02:39:44.315Z,17.82
2022-10-04T02:42:13.110Z,17.31
2022-10-04T02:44:47.636Z,17.66
2022-10-04T02:47:17.896Z,17.55
2022-10-04T02:50:02.029Z,17.49
2022-10-04T02:52:39.612Z,16.41
2022-10-04T02:55:15.154Z,17.20
2022-10-04T02:57:42.577Z,17.34
2022-10-04T03:00:14.122Z,16.89
2022-10-04T03:02:41.307Z,16.93
2022-10-04T03:05:09.124Z,17.45
2022-10-04T03:07:36.613Z,16.86
2022-10-04T03:10:07.211Z,17.27
2022-10-04T03:12:34.858Z,16.81
2022-10-04T03:15:02.241Z,16.79
2022-10-04T03:17:29.700Z,17.04
2022-10-04T03:19:57.750Z,17.04
2022-10-04T03:22:25.165Z,17.26
2022-10-04T03:24:53.538Z,16.45
2022-10-04T03:27:22.087Z,16.89
2022-10-04T03:29:50.484Z,17.36
2022-10-04T03:32:18.026Z,16.59
2022-10-04T03:34:51.944Z,16.77
2022-10-04T03:37:21.566Z,17.15
2022-10-04T03:39:49.514Z,16.46
2022-10-04T03:42:17.956Z,16.41
2022-10-04T03:44:45.847Z,16.27
2022-10-04T03:47:13.848Z,16.46
2022-10-04T03:49:41.092Z,15.85
2022-10-04T03:52:09.803Z,16.84
2022-10-04T03:54:36.990Z,16.94
2022-10-04T03:57:04.124Z,16.20
2022-10-04T03:59:31.573Z,16.05
2022-10-04T04:02:03.856Z,16.09
2022-10-04T04:04:37.175Z,16.44
2022-10-04T04:07:07.739Z,15.49
2022-10-04T04:09:43.451Z,15.69
2022-10-04T04:12:14.102Z,16.45
2022-10-04T04:14:41.497Z,16.52
2022-10-04T04:17:29.931Z,16.85
2022-10-04T04:19:58.183Z,16.86
2022-10-04T04:22:31.251Z,16.90
2022-10-04T04:24:59.959Z,17.14
2022-10-04T04:27:29.163Z,16.88
2022-10-04T04:29:58.233Z,16.60
2022-10-04T04:32:28.476Z,16.63
2022-10-04T04:35:00.625Z,16.60
2022-10-04T04:37:28.035Z,16.77
2022-10-04T04:39:55.449Z,16.89
2022-10-04T04:42:25.327Z,16.80
2022-10-04T04:44:53.689Z,16.89
2022-10-04T04:47:40.181Z,17.59
2022-10-04T04:50:15.374Z,16.84
2022-10-04T04:52:50.308Z,17.50
2022-10-04T04:55:21.765Z,17.53
2022-10-04T04:57:48.989Z,16.96
2022-10-04T05:00:17.241Z,16.58
2022-10-04T05:02:58.564Z,16.59
2022-10-04T05:05:27.295Z,16.95
2022-10-04T05:08:10.100Z,16.58
2022-10-04T05:10:37.215Z,16.60
2022-10-04T05:13:04.615Z,16.97
2022-10-04T05:15:32.866Z,16.38
2022-10-04T05:18:00.000Z,16.40
2022-10-04T05:20:27.882Z,16.58
2022-10-04T05:22:55.139Z,16.86
2022-10-04T05:25:25.735Z,17.12
2022-10-04T05:27:53.157Z,16.69
2022-10-04T05:30:20.265Z,16.45
2022-10-04T05:32:50.863Z,16.77
2022-10-04T05:35:19.207Z,16.68
2022-10-04T05:37:46.358Z,16.73
2022-10-04T05:40:13.446Z,17.44
2022-10-04T05:42:45.416Z,17.44
2022-10-04T05:45:12.799Z,16.71
2022-10-04T05:47:39.947Z,16.62
2022-10-04T05:50:07.419Z,16.90
2022-10-04T05:52:36.373Z,17.11
2022-10-04T05:55:13.097Z,16.97
2022-10-04T05:57:59.182Z,17.41
2022-10-04T06:00:46.542Z,16.99
2022-10-04T06:03:25.169Z,17.46
2022-10-04T06:05:52.285Z,17.42
2022-10-04T06:08:22.864Z,17.15
2022-10-04T06:10:59.232Z,17.28
2022-10-04T06:13:39.170Z,16.14
2022-10-04T06:16:13.194Z,16.97
2022-10-04T06:18:49.981Z,17.02
2022-10-04T06:21:19.715Z,16.23
2022-10-04T06:23:59.077Z,16.74
2022-10-04T06:26:29.977Z,16.70
2022-10-04T06:28:58.969Z,17.11
2022-10-04T06:31:45.830Z,16.98
2022-10-04T06:34:32.079Z,16.79
2022-10-04T06:37:22.253Z,16.09
2022-10-04T06:40:10.866Z,17.06
2022-10-04T06:42:44.594Z,16.70
2022-10-04T06:45:12.120Z,17.18
2022-10-04T06:48:00.250Z,17.45
2022-10-04T06:50:27.618Z,17.00
2022-10-04T06:52:54.886Z,16.55
2022-10-04T06:55:40.863Z,17.50
2022-10-04T06:58:11.444Z,17.76
2022-10-04T07:00:46.069Z,17.88
2022-10-04T07:03:23.331Z,17.92
2022-10-04T07:06:16.937Z,17.51
2022-10-04T07:08:48.218Z,18.34
2022-10-04T07:11:16.989Z,17.35
2022-10-04T07:13:44.477Z,16.48
2022-10-04T07:16:31.802Z,17.53
2022-10-04T07:19:17.606Z,17.94
2022-10-04T07:22:00.360Z,17.86
2022-10-04T07:24:33.085Z,17.79
2022-10-04T07:27:00.370Z,17.03
2022-10-04T07:29:28.347Z,17.33
2022-10-04T07:32:04.280Z,17.75
2022-10-04T07:34:33.015Z,16.81
2022-10-04T07:37:00.718Z,17.82
2022-10-04T07:39:28.343Z,17.71
2022-10-04T07:41:57.547Z,16.91
2022-10-04T07:44:43.410Z,16.81
2022-10-04T07:47:14.696Z,16.85
2022-10-04T07:49:41.810Z,17.23
2022-10-04T07:52:27.732Z,17.91
2022-10-04T07:55:05.974Z,16.07
2022-10-04T07:57:36.059Z,17.71
2022-10-04T08:00:15.069Z,18.29
2022-10-04T08:02:42.532Z,18.13
2022-10-04T08:05:23.226Z,17.69
2022-10-04T08:07:56.780Z,17.40
2022-10-04T08:10:27.108Z,18.29
2022-10-04T08:13:03.646Z,17.94
2022-10-04T08:15:33.560Z,18.80
2022-10-04T08:18:19.128Z,18.44
2022-10-04T08:20:52.084Z,18.92
2022-10-04T08:23:32.429Z,18.95
2022-10-04T08:26:14.961Z,19.17
2022-10-04T08:29:08.028Z,18.81
2022-10-04T08:31:54.174Z,19.36
2022-10-04T08:34:25.152Z,18.57
2022-10-04T08:36:54.995Z,18.66
2022-10-04T08:39:25.408Z,18.81
2022-10-04T08:41:57.339Z,19.95
2022-10-04T08:44:41.526Z,18.89
2022-10-04T08:47:11.527Z,19.19
2022-10-04T08:49:38.930Z,18.98
2022-10-04T08:52:24.393Z,20.00
2022-10-04T08:55:11.801Z,20.10
2022-10-04T08:57:50.719Z,19.08
2022-10-04T09:00:24.278Z,19.92
2022-10-04T09:02:57.507Z,19.68
2022-10-04T09:05:32.283Z,19.62
2022-10-04T09:08:18.383Z,19.10
2022-10-04T09:10:45.733Z,20.16
2022-10-04T09:13:30.366Z,19.86
2022-10-04T09:16:08.216Z,20.20
2022-10-04T09:18:38.391Z,19.78
2022-10-04T09:21:05.767Z,19.54
2022-10-04T09:23:51.580Z,19.12
2022-10-04T09:26:43.342Z,20.22
2022-10-04T09:29:25.957Z,19.73
2022-10-04T09:31:56.381Z,20.65
2022-10-04T09:34:26.230Z,19.19
2022-10-04T09:37:15.661Z,20.14
2022-10-04T09:39:48.742Z,20.33
2022-10-04T09:42:22.221Z,21.13
2022-10-04T09:45:12.325Z,20.43
2022-10-04T09:48:05.994Z,20.40
2022-10-04T09:50:37.279Z,19.86
2022-10-04T09:53:07.474Z,20.10
2022-10-04T09:55:49.619Z,20.26
2022-10-04T09:58:29.518Z,20.01
2022-10-04T10:00:56.570Z,19.70
2022-10-04T10:03:23.962Z,19.28
2022-10-04T10:06:12.372Z,20.23
2022-10-04T10:09:12.327Z,19.64
2022-10-04T10:11:57.894Z,19.30
2022-10-04T10:14:26.256Z,20.13
2022-10-04T10:17:01.031Z,19.81
2022-10-04T10:19:31.389Z,19.79
2022-10-04T10:22:13.622Z,20.13
2022-10-04T10:24:59.828Z,20.75
2022-10-04T10:27:32.809Z,20.14
2022-10-04T10:30:06.485Z,19.85
2022-10-04T10:32:36.505Z,19.72
2022-10-04T10:35:06.877Z,20.30
2022-10-04T10:37:52.712Z,20.06
2022-10-04T10:40:29.183Z,19.63
2022-10-04T10:42:59.908Z,20.12
2022-10-04T10:45:30.131Z,19.50
2022-10-04T10:48:01.723Z,18.96
2022-10-04T10:50:59.814Z,19.98
2022-10-04T10:53:29.980Z,19.53
2022-10-04T10:56:08.626Z,19.38
2022-10-04T10:58:50.496Z,18.92
2022-10-04T11:01:27.111Z,19.61
2022-10-04T11:03:57.375Z,18.79
2022-10-04T11:06:25.369Z,19.05
2022-10-04T11:09:11.528Z,19.42
2022-10-04T11:11:57.849Z,19.18
2022-10-04T11:14:46.088Z,19.07
2022-10-04T11:17:25.231Z,18.84
2022-10-04T11:20:11.242Z,19.30
2022-10-04T11:22:58.344Z,20.32
2022-10-04T11:25:36.101Z,20.16
2022-10-04T11:28:09.794Z,20.36
2022-10-04T11:31:01.629Z,21.17
2022-10-04T11:33:29.022Z,19.77
2022-10-04T11:36:08.075Z,20.39
2022-10-04T11:38:35.781Z,20.89
2022-10-04T11:41:18.240Z,20.22
2022-10-04T11:44:04.046Z,20.96
2022-10-04T11:46:49.927Z,19.98
2022-10-04T11:49:20.102Z,20.60
2022-10-04T11:52:06.023Z,19.60
2022-10-04T11:54:48.202Z,20.51
2022-10-04T11:57:31.466Z,20.15
2022-10-04T12:00:16.008Z,20.22
2022-10-04T12:02:52.786Z,20.58
2022-10-04T12:05:21.959Z,19.84
2022-10-04T12:07:57.540Z,19.74
2022-10-04T12:10:24.643Z,19.61
2022-10-04T12:13:07.405Z,20.16
2022-10-04T12:15:41.079Z,19.07
2022-10-04T12:18:08.404Z,18.76
2022-10-04T12:20:53.194Z,18.52
2022-10-04T12:23:20.549Z,18.14
2022-10-04T12:25:53.791Z,18.75
2022-10-04T12:28:24.066Z,17.87
2022-10-04T12:31:00.371Z,18.16
2022-10-04T12:33:30.569Z,19.24
2022-10-04T12:36:00.427Z,20.09
2022-10-04T12:38:37.410Z,19.70
2022-10-04T12:41:04.547Z,20.67
2022-10-04T12:43:44.681Z,20.60
2022-10-04T12:46:16.160Z,20.06
2022-10-04T12:48:48.234Z,19.67
2022-10-04T12:51:20.522Z,20.35
2022-10-04T12:54:06.878Z,20.24
2022-10-04T12:56:47.985Z,20.29
2022-10-04T12:59:25.397Z,19.96
2022-10-04T13:02:04.789Z,19.09
2022-10-04T13:04:36.118Z,19.74
2022-10-04T13:07:23.450Z,20.16
2022-10-04T13:10:25.524Z,20.25
2022-10-04T13:13:08.903Z,20.43
2022-10-04T13:18:26.871Z,19.66
2022-10-04T13:20:54.946Z,20.13
2022-10-04T13:23:25.020Z,19.70
2022-10-04T13:26:03.381Z,20.11
2022-10-04T13:28:34.600Z,19.61
2022-10-04T13:31:34.929Z,19.95
2022-10-04T13:34:21.038Z,20.62
2022-10-04T13:37:14.260Z,19.13
2022-10-04T13:40:00.535Z,19.34
2022-10-04T13:42:30.492Z,19.56
2022-10-04T13:45:03.999Z,20.41
2022-10-04T13:47:46.316Z,20.62
2022-10-04T13:50:29.390Z,21.05
2022-10-04T13:53:30.441Z,20.10
2022-10-04T13:56:18.907Z,19.51
2022-10-04T13:58:53.568Z,20.24
2022-10-04T14:01:39.693Z,20.12
2022-10-04T14:04:07.007Z,20.00
2022-10-04T14:06:52.737Z,20.78
2022-10-04T14:09:29.259Z,20.82
2022-10-04T14:12:16.056Z,20.54
2022-10-04T14:14:49.623Z,20.74
2022-10-04T14:17:35.378Z,19.33
2022-10-04T14:20:11.518Z,20.19
2022-10-04T14:22:57.464Z,20.21
2022-10-04T14:25:40.026Z,20.86
2022-10-04T14:28:09.878Z,20.41
2022-10-04T14:30:48.826Z,20.11
2022-10-04T14:33:19.010Z,19.29
2022-10-04T14:35:57.117Z,19.81
2022-10-04T14:38:28.001Z,19.79
2022-10-04T14:41:13.975Z,20.45
2022-10-04T14:43:53.281Z,20.49
2022-10-04T14:46:29.692Z,19.79
2022-10-04T14:49:15.718Z,20.40
2022-10-04T14:51:46.877Z,20.16
2022-10-04T14:54:25.580Z,19.12
2022-10-04T14:57:11.151Z,19.30
2022-10-04T14:59:57.037Z,20.23
2022-10-04T15:02:31.685Z,19.71
2022-10-04T15:05:19.308Z,19.05
2022-10-04T15:07:50.405Z,20.07
2022-10-04T15:10:19.095Z,20.12
2022-10-04T15:13:15.814Z,19.72
2022-10-04T15:16:13.868Z,19.69
2022-10-04T15:18:41.668Z,19.59
2022-10-04T15:21:33.011Z,19.60
2022-10-04T15:24:10.902Z,19.79
2022-10-04T15:26:45.222Z,20.13
2022-10-04T15:29:29.056Z,19.97
2022-10-04T15:31:56.110Z,20.63
2022-10-04T15:34:29.759Z,20.23
2022-10-04T15:37:05.835Z,20.81
2022-10-04T15:39:39.380Z,21.22
2022-10-04T15:42:09.229Z,21.75
2022-10-04T15:44:48.931Z,21.55
2022-10-04T15:47:32.018Z,21.77
2022-10-04T15:49:59.354Z,21.92
2022-10-04T15:52:44.311Z,22.02
2022-10-04T15:55:14.763Z,21.77
2022-10-04T15:57:44.924Z,22.29
2022-10-04T16:00:13.909Z,22.10
2022-10-04T16:02:50.477Z,22.01
2022-10-04T16:05:23.757Z,22.07
2022-10-04T16:08:09.512Z,22.09
2022-10-04T16:10:55.249Z,22.36
2022-10-04T16:13:26.225Z,22.53
2022-10-04T16:16:17.604Z,22.51
2022-10-04T16:18:46.838Z,22.52
2022-10-04T16:21:28.801Z,22.37
2022-10-04T16:24:15.815Z,22.02
2022-10-04T16:26:43.865Z,21.86
2022-10-04T16:29:16.517Z,21.22
2022-10-04T16:31:54.618Z,21.55
2022-10-04T16:34:25.101Z,21.50
2022-10-04T16:36:55.078Z,21.61
2022-10-04T16:39:55.007Z,21.70
2022-10-04T16:42:23.669Z,21.36
2022-10-04T16:44:52.833Z,21.61
2022-10-04T16:47:22.376Z,21.71
2022-10-04T16:49:51.240Z,21.84
2022-10-04T16:52:18.543Z,21.74
2022-10-04T16:54:57.958Z,21.72
2022-10-04T16:57:27.485Z,21.79
2022-10-04T16:59:55.639Z,21.78
2022-10-04T17:02:41.857Z,21.78
2022-10-04T17:05:29.566Z,21.69
2022-10-04T17:07:59.813Z,21.84
2022-10-04T17:10:27.492Z,21.61
2022-10-04T17:13:13.479Z,21.41
2022-10-04T17:15:40.873Z,21.47
2022-10-04T17:18:17.520Z,21.45
2022-10-04T17:20:58.912Z,21.39
2022-10-04T17:23:44.955Z,21.27
2022-10-04T17:26:18.512Z,21.21
2022-10-04T17:28:59.558Z,21.36
2022-10-04T17:31:29.189Z,21.17
2022-10-04T17:34:13.574Z,20.95
2022-10-04T17:36:42.152Z,20.93
2022-10-04T17:39:24.918Z,20.95
2022-10-04T17:42:18.563Z,20.75
2022-10-04T17:45:00.584Z,20.90
2022-10-04T17:47:54.943Z,20.91
2022-10-04T17:50:46.198Z,20.76
2022-10-04T17:53:37.843Z,20.96
2022-10-04T17:56:05.378Z,20.54
2022-10-04T17:58:41.029Z,20.55
2022-10-04T18:01:29.084Z,20.39
2022-10-04T18:03:57.607Z,20.28
2022-10-04T18:06:29.333Z,20.52
2022-10-04T18:08:57.921Z,20.50
2022-10-04T18:11:41.457Z,20.46
2022-10-04T18:14:38.969Z,20.45
2022-10-04T18:17:09.608Z,20.50
2022-10-04T18:19:50.197Z,20.32
2022-10-04T18:22:17.589Z,20.57
2022-10-04T18:24:45.859Z,20.52
2022-10-04T18:27:21.238Z,20.54
2022-10-04T18:30:08.221Z,20.40
2022-10-04T18:32:36.159Z,20.25
2022-10-04T18:35:23.361Z,20.28
2022-10-04T18:37:50.713Z,20.50
2022-10-04T18:40:25.505Z,20.42
2022-10-04T18:42:54.116Z,20.46
2022-10-04T18:45:23.976Z,20.41
2022-10-04T18:47:52.728Z,20.48
2022-10-04T18:50:20.262Z,20.47
2022-10-04T18:53:13.731Z,20.39
2022-10-04T18:56:00.760Z,20.36
2022-10-04T18:59:06.087Z,20.22
2022-10-04T19:02:01.325Z,20.02
2022-10-04T19:04:49.983Z,19.93
2022-10-04T19:07:19.629Z,19.98
2022-10-04T19:09:53.490Z,20.14
2022-10-04T19:12:53.480Z,19.98
2022-10-04T19:15:30.130Z,20.05
2022-10-04T19:18:03.850Z,20.03
2022-10-04T19:20:31.272Z,19.70
2022-10-04T19:23:12.648Z,19.79
2022-10-04T19:25:41.455Z,19.83
2022-10-04T19:28:11.346Z,19.65
2022-10-04T19:30:38.776Z,19.75
2022-10-04T19:33:45.210Z,19.89
2022-10-04T19:36:13.104Z,19.83
2022-10-04T19:38:40.630Z,19.91
2022-10-04T19:41:28.225Z,19.85
2022-10-04T19:44:14.722Z,19.79
2022-10-04T19:46:43.648Z,19.79
2022-10-04T19:49:18.037Z,19.50
2022-10-04T19:51:52.544Z,19.64
2022-10-04T19:54:28.234Z,19.71
2022-10-04T19:56:55.897Z,19.72
2022-10-04T19:59:31.440Z,19.63
2022-10-04T20:01:58.776Z,19.23
2022-10-04T20:04:35.926Z,19.48
2022-10-04T20:07:04.179Z,19.67
2022-10-04T20:09:37.886Z,19.65
2022-10-04T20:12:05.583Z,19.56
2022-10-04T20:14:33.321Z,19.24
2022-10-04T20:17:01.070Z,19.42
2022-10-04T20:19:29.203Z,19.42
2022-10-04T20:21:57.804Z,19.39
2022-10-04T20:24:37.244Z,19.33
2022-10-04T20:27:09.230Z,19.39
2022-10-04T20:29:36.544Z,19.53
2022-10-04T20:32:05.015Z,19.51
2022-10-04T20:34:38.678Z,19.45
2022-10-04T20:37:06.371Z,19.52
2022-10-04T20:39:40.190Z,19.54
2022-10-04T20:42:22.799Z,19.62
2022-10-04T20:44:56.918Z,19.55
2022-10-04T20:47:24.331Z,19.55
2022-10-04T20:49:52.059Z,19.45
2022-10-04T20:52:22.491Z,19.49
2022-10-04T20:54:52.317Z,19.47
2022-10-04T20:57:23.892Z,19.60
2022-10-04T20:59:54.585Z,19.63
2022-10-04T21:02:23.388Z,19.55
2022-10-04T21:04:53.419Z,19.39
2022-10-04T21:07:21.246Z,19.36
2022-10-04T21:09:48.790Z,19.41
2022-10-04T21:12:49.969Z,19.29
2022-10-04T21:15:17.254Z,19.08
2022-10-04T21:17:48.710Z,19.30
2022-10-04T21:20:35.755Z,19.20
2022-10-04T21:23:09.880Z,19.33
2022-10-04T21:25:36.987Z,19.28
2022-10-04T21:28:23.766Z,19.07
2022-10-04T21:30:50.929Z,19.27
2022-10-04T21:33:18.293Z,19.32
2022-10-04T21:35:45.423Z,19.11
2022-10-04T21:38:12.547Z,19.17
2022-10-04T21:40:39.926Z,19.26
2022-10-04T21:43:07.024Z,19.25
2022-10-04T21:45:34.165Z,18.61
2022-10-04T21:48:01.602Z,18.93
2022-10-04T21:50:28.739Z,18.97
2022-10-04T21:52:57.418Z,19.11
2022-10-04T21:55:24.795Z,19.13
2022-10-04T21:57:51.897Z,19.07
2022-10-04T22:00:19.043Z,19.19
2022-10-04T22:02:46.483Z,19.18
2022-10-04T22:05:13.747Z,19.01
2022-10-04T22:07:40.854Z,19.13
2022-10-04T22:10:08.408Z,19.08
2022-10-04T22:12:35.529Z,19.01
2022-10-04T22:15:02.646Z,18.67
2022-10-04T22:17:30.085Z,18.50
2022-10-04T22:19:57.188Z,18.68
2022-10-04T22:22:24.306Z,18.55
2022-10-04T22:24:51.669Z,18.26
2022-10-04T22:27:19.262Z,18.47
2022-10-04T22:29:46.399Z,18.75
2022-10-04T22:32:24.154Z,18.83
2022-10-04T22:34:51.922Z,18.55
2022-10-04T22:37:21.315Z,18.67
2022-10-04T22:39:48.425Z,18.89
2022-10-04T22:42:15.518Z,18.80
2022-10-04T22:44:42.900Z,18.64
2022-10-04T22:47:11.272Z,18.53
2022-10-04T22:49:40.128Z,18.36
2022-10-04T22:52:33.769Z,18.24
2022-10-04T22:55:01.271Z,18.11
2022-10-04T22:57:28.773Z,18.39
2022-10-04T22:59:55.891Z,18.51
2022-10-04T23:02:26.521Z,18.31
2022-10-04T23:04:54.740Z,18.21
2022-10-04T23:07:21.983Z,18.25
2022-10-04T23:09:49.121Z,18.41
2022-10-04T23:12:16.476Z,18.35
2022-10-04T23:14:43.584Z,18.43
2022-10-04T23:17:13.815Z,18.55
2022-10-04T23:19:41.215Z,18.50
2022-10-04T23:22:09.589Z,18.61
2022-10-04T23:24:36.703Z,18.58
2022-10-04T23:27:06.987Z,18.47
2022-10-04T23:29:34.235Z,18.58
2022-10-04T23:32:01.886Z,18.40
2022-10-04T23:34:31.249Z,18.51
2022-10-04T23:36:58.443Z,18.29
2022-10-04T23:39:26.866Z,18.32
2022-10-04T23:41:54.925Z,18.42
2022-10-04T23:44:22.808Z,18.29
2022-10-04T23:46:49.934Z,18.40
2022-10-04T23:49:17.565Z,18.41
2022-10-04T23:51:45.038Z,18.46
2022-10-04T23:54:15.520Z,18.07
2022-10-04T23:56:43.246Z,18.23
2022-10-04T23:59:15.923Z,18.17
